createdAt,value
2023-01-03T00:05:30.389Z,12.34
2023-01-03T00:11:11.520Z,11.65
2023-01-03T00:16:50.460Z,11.15
2023-01-03T00:22:36.855Z,12.40
2023-01-03T00:28:26.344Z,15.43
2023-01-03T00:33:56.194Z,15.15
2023-01-03T00:39:13.068Z,13.50
2023-01-03T00:45:19.949Z,12.55
2023-01-03T00:51:34.209Z,11.82
2023-01-03T00:57:22.905Z,11.31
2023-01-03T01:03:36.923Z,12.86
2023-01-03T01:09:51.585Z,15.71
2023-01-03T01:16:04.919Z,14.13
2023-01-03T01:22:29.695Z,12.86
2023-01-03T01:28:39.113Z,12.08
2023-01-03T01:34:23.787Z,11.53
2023-01-03T01:40:39.169Z,11.13
2023-01-03T01:47:03.368Z,12.79
2023-01-03T01:53:00.161Z,15.51
2023-01-03T01:59:16.712Z,13.80
2023-01-03T02:05:17.922Z,12.61
2023-01-03T02:11:34.225Z,11.87
2023-01-03T02:18:07.307Z,11.32
2023-01-03T02:24:02.207Z,10.96
2023-01-03T02:30:24.357Z,12.71
2023-01-03T02:36:50.952Z,15.92
2023-01-03T02:43:06.700Z,14.24
2023-01-03T02:48:58.329Z,12.84
2023-01-03T02:55:21.087Z,11.90
2023-01-03T03:01:22.674Z,11.23
2023-01-03T03:07:49.412Z,12.91
2023-01-03T03:14:15.772Z,14.87
2023-01-03T03:20:38.168Z,12.91
2023-01-03T03:26:26.820Z,11.90
2023-01-03T03:32:51.473Z,11.32
2023-01-03T03:38:33.259Z,10.89
2023-01-03T03:44:41.607Z,12.34
2023-01-03T03:50:49.237Z,15.24
2023-01-03T03:56:46.897Z,13.65
2023-01-03T04:02:50.071Z,12.46
2023-01-03T04:08:40.884Z,11.77
2023-01-03T04:14:55.151Z,12.94
2023-01-03T04:28:06.275Z,13.68
2023-01-03T04:41:29.796Z,11.96
2023-01-03T04:47:16.610Z,11.53
2023-01-03T04:53:19.156Z,12.65
2023-01-03T05:00:08.339Z,15.44
2023-01-03T05:22:20.094Z,11.92
2023-01-03T05:27:59.213Z,11.52
2023-01-03T05:41:23.589Z,15.53
2023-01-03T05:47:22.405Z,13.61
2023-01-03T05:59:08.684Z,12.26
2023-01-03T06:05:50.771Z,11.86
2023-01-03T06:11:59.297Z,13.65
2023-01-03T06:18:18.214Z,16.27
2023-01-03T06:24:30.408Z,14.56
2023-01-03T06:31:02.337Z,13.44
2023-01-03T06:37:08.599Z,12.64
2023-01-03T06:43:26.727Z,12.21
2023-01-03T06:49:29.275Z,11.89
2023-01-03T06:55:24.075Z,11.63
2023-01-03T07:00:52.897Z,13.20
2023-01-03T07:06:32.349Z,15.93
2023-01-03T07:12:54.807Z,14.82
2023-01-03T07:18:30.738Z,13.59
2023-01-03T07:31:55.206Z,12.48
2023-01-03T07:37:34.751Z,12.08
2023-01-03T07:44:11.228Z,11.84
2023-01-03T07:53:23.962Z,14.27
2023-01-03T08:05:24.893Z,14.01
2023-01-03T08:11:16.787Z,13.12
2023-01-03T08:17:40.384Z,12.51
2023-01-03T08:24:31.399Z,12.09
2023-01-03T08:44:29.579Z,13.64
2023-01-03T08:50:30.133Z,15.18
2023-01-03T09:04:37.275Z,12.85
2023-01-03T09:10:47.929Z,12.47
2023-01-03T09:16:11.752Z,12.26
2023-01-03T09:23:11.885Z,12.14
2023-01-03T09:28:50.611Z,12.08
2023-01-03T09:34:25.107Z,13.49
2023-01-03T09:47:10.710Z,15.22
2023-01-03T09:56:06.469Z,14.33
2023-01-03T10:14:29.983Z,13.21
2023-01-03T10:21:02.554Z,13.08
2023-01-03T10:26:40.337Z,12.99
2023-01-03T10:32:40.919Z,12.87
2023-01-03T10:38:02.668Z,12.80
2023-01-03T10:58:05.123Z,12.76
2023-01-03T11:04:19.347Z,12.75
2023-01-03T11:11:01.081Z,12.79
2023-01-03T11:17:23.329Z,12.83
2023-01-03T11:23:19.410Z,12.88
2023-01-03T11:29:06.099Z,12.87
2023-01-03T11:41:19.211Z,12.82
2023-01-03T11:47:21.190Z,12.76
2023-01-03T11:59:47.548Z,12.76
2023-01-03T12:11:54.638Z,12.76
2023-01-03T12:17:56.681Z,12.78
2023-01-03T12:24:34.814Z,12.84
2023-01-03T12:30:38.160Z,12.89
2023-01-03T12:37:12.822Z,12.93
2023-01-03T12:44:05.499Z,12.91
2023-01-03T12:51:07.404Z,12.90
2023-01-03T12:58:04.723Z,12.89
2023-01-03T13:04:50.269Z,12.86
2023-01-03T13:14:28.523Z,12.83
2023-01-03T13:17:30.112Z,12.73
2023-01-03T13:23:36.647Z,12.65
2023-01-03T13:29:04.811Z,12.59
2023-01-03T13:34:41.885Z,12.51
2023-01-03T13:40:52.274Z,12.49
2023-01-03T13:47:08.678Z,12.46
2023-01-03T13:53:02.338Z,12.45
2023-01-03T13:59:25.911Z,12.45
2023-01-03T14:05:24.094Z,12.45
2023-01-03T14:11:11.859Z,12.41
2023-01-03T14:18:00.131Z,12.36
2023-01-03T14:24:01.040Z,12.33
2023-01-03T14:29:17.286Z,12.31
2023-01-03T14:35:28.719Z,12.32
2023-01-03T14:40:49.890Z,12.32
2023-01-03T14:46:08.791Z,12.33
2023-01-03T14:51:23.959Z,12.31
2023-01-03T14:56:39.678Z,12.28
2023-01-03T15:02:16.478Z,12.24
2023-01-03T15:07:59.115Z,12.18
2023-01-03T15:13:48.739Z,12.11
2023-01-03T15:19:26.582Z,12.02
2023-01-03T15:25:17.228Z,11.95
2023-01-03T15:31:22.748Z,11.92
2023-01-03T15:37:36.351Z,11.86
2023-01-03T15:43:09.467Z,11.82
2023-01-03T15:48:38.363Z,11.80
2023-01-03T15:54:23.113Z,11.73
2023-01-03T16:01:02.046Z,11.68
2023-01-03T16:07:37.700Z,11.62
2023-01-03T16:13:09.451Z,11.56
2023-01-03T16:19:01.832Z,11.51
2023-01-03T16:24:34.642Z,11.47
2023-01-03T16:30:24.838Z,11.42
2023-01-03T16:36:06.774Z,11.41
2023-01-03T16:41:23.302Z,11.36
2023-01-03T16:46:44.166Z,11.34
2023-01-03T16:52:57.075Z,11.29
2023-01-03T16:58:16.127Z,11.26
2023-01-03T17:03:25.461Z,11.22
2023-01-03T17:10:02.346Z,11.18
2023-01-03T17:15:50.966Z,11.12
2023-01-03T17:22:18.499Z,11.06
2023-01-03T17:28:10.192Z,11.02
2023-01-03T17:33:38.313Z,10.97
2023-01-03T17:46:49.294Z,10.85
2023-01-03T17:52:18.964Z,10.82
2023-01-03T17:58:29.580Z,10.77
2023-01-03T18:04:12.708Z,10.73
2023-01-03T18:10:23.368Z,10.72
2023-01-03T18:15:40.445Z,10.69
2023-01-03T18:28:01.414Z,10.61
2023-01-03T18:34:41.247Z,10.56
2023-01-03T18:40:32.606Z,10.55
2023-01-03T18:46:43.513Z,10.50
2023-01-03T18:53:41.830Z,10.44
2023-01-03T18:59:11.977Z,10.41
2023-01-03T19:05:20.314Z,10.39
2023-01-03T19:12:26.007Z,10.38
2023-01-03T19:18:04.457Z,10.38
2023-01-03T19:32:37.251Z,10.35
2023-01-03T19:38:46.974Z,10.33
2023-01-03T19:45:34.479Z,10.34
2023-01-03T19:59:04.377Z,10.35
2023-01-03T20:24:28.244Z,10.31
2023-01-03T20:30:40.583Z,10.32
2023-01-03T20:55:38.737Z,10.19
2023-01-03T21:09:23.555Z,10.13
2023-01-03T21:15:48.925Z,10.09
2023-01-03T21:21:48.577Z,10.05
2023-01-03T21:28:38.950Z,10.00
2023-01-03T21:41:10.342Z,9.95
2023-01-03T22:09:31.285Z,12.20
2023-01-03T22:22:51.095Z,12.99
2023-01-03T22:28:52.601Z,12.12
2023-01-03T22:34:39.557Z,11.42
2023-01-03T22:41:23.813Z,10.92
2023-01-03T22:47:41.570Z,10.48
2023-01-03T23:20:39.304Z,9.36
2023-01-03T23:27:00.572Z,9.21
2023-01-03T23:40:05.539Z,9.01
2023-01-03T23:46:35.491Z,8.93
2023-01-03T23:59:54.229Z,8.74
